Time;durP1;ratioP1;P1;durP2;ratioP2;P2;SDS_P1;SDS_P2;PMS_P1;PMS_P2;Temp;Humidity;BMP_temperature;BMP_pressure;BME280_temperature;BME280_humidity;BME280_pressure;Samples;Min_cycle;Max_cycle;Signal;HPM_P1;HPM_P2
2021/08/25 00:02:18;;;;;;;2.83;0.20;;;14.90;99.90;;;;;;5070776;28;20609;-83
2021/08/25 00:04:44;;;;;;;0.50;0.50;;;14.90;99.90;;;;;;5069425;28;20203;-82
2021/08/25 00:07:10;;;;;;;0.50;0.30;;;14.90;99.90;;;;;;5067758;28;20203;-81
2021/08/25 00:09:36;;;;;;;0.40;0.40;;;14.90;99.90;;;;;;5070421;28;20217;-82
2021/08/25 00:12:03;;;;;;;0.30;0.30;;;14.90;99.90;;;;;;5060177;28;20296;-82
2021/08/25 00:14:29;;;;;;;0.27;0.20;;;14.90;99.90;;;;;;5052051;28;20184;-82
2021/08/25 00:16:54;;;;;;;1.13;0.23;;;14.90;99.90;;;;;;5067456;28;20639;-82
2021/08/25 00:19:21;;;;;;;0.83;0.83;;;14.90;99.90;;;;;;5070123;28;20245;-82
2021/08/25 00:21:47;;;;;;;0.20;0.20;;;15.00;99.90;;;;;;5070173;28;20259;-82
2021/08/25 00:24:12;;;;;;;0.23;0.23;;;14.90;99.90;;;;;;5071717;28;20615;-82
2021/08/25 00:26:38;;;;;;;0.30;0.30;;;14.90;99.90;;;;;;5069380;28;20192;-83
2021/08/25 00:29:03;;;;;;;0.73;0.50;;;14.90;99.90;;;;;;5070128;28;20249;-82
2021/08/25 00:31:29;;;;;;;0.87;0.53;;;14.90;99.90;;;;;;5064508;28;20243;-83
2021/08/25 00:33:54;;;;;;;0.40;0.40;;;14.90;99.90;;;;;;5064452;28;20208;-82
2021/08/25 00:36:20;;;;;;;0.20;0.20;;;14.90;99.90;;;;;;5063074;28;20261;-82
2021/08/25 00:38:45;;;;;;;1.10;0.37;;;14.90;99.90;;;;;;5066801;28;20651;-83
2021/08/25 00:41:11;;;;;;;0.23;0.23;;;14.90;99.90;;;;;;5060091;28;20218;-82
2021/08/25 00:43:37;;;;;;;1.10;0.60;;;14.90;99.90;;;;;;5067746;28;20214;-82
2021/08/25 00:46:03;;;;;;;0.20;0.20;;;14.90;99.90;;;;;;5056010;28;20873;-82
2021/08/25 00:48:29;;;;;;;0.27;0.13;;;14.90;99.90;;;;;;5068764;28;20278;-83
2021/08/25 00:50:55;;;;;;;0.30;0.30;;;14.90;99.90;;;;;;5061394;28;20299;-82
2021/08/25 00:53:22;;;;;;;0.43;0.13;;;14.80;99.90;;;;;;5066866;28;20185;-83
2021/08/25 00:55:49;;;;;;;0.50;0.40;;;14.80;99.90;;;;;;5065185;28;20659;-82
2021/08/25 00:58:15;;;;;;;0.30;0.30;;;14.80;99.90;;;;;;5059326;28;20175;-81
2021/08/25 01:01:20;;;;;;;0.30;0.30;;;14.80;99.90;;;;;;5062871;28;20256;-81
2021/08/25 01:03:54;;;;;;;0.23;0.23;;;14.80;99.90;;;;;;5055217;28;20224;-82
2021/08/25 01:06:25;;;;;;;0.30;0.30;;;14.80;99.90;;;;;;5070542;28;20643;-83
2021/08/25 01:08:55;;;;;;;0.37;0.37;;;14.90;99.90;;;;;;5071936;28;20220;-83
2021/08/25 01:11:21;;;;;;;0.17;0.17;;;14.90;99.90;;;;;;5057899;28;20225;-81
2021/08/25 01:13:47;;;;;;;0.77;0.53;;;14.90;99.90;;;;;;5064218;28;20186;-82
2021/08/25 01:16:13;;;;;;;0.40;0.20;;;14.90;99.90;;;;;;5073187;28;20188;-82
2021/08/25 01:18:40;;;;;;;0.60;0.30;;;14.90;99.90;;;;;;5069251;28;20182;-83
2021/08/25 01:21:07;;;;;;;0.70;0.70;;;14.90;99.90;;;;;;5062666;28;20588;-82
2021/08/25 01:23:39;;;;;;;0.43;0.43;;;14.90;99.90;;;;;;5070661;28;20189;-82
2021/08/25 01:26:05;;;;;;;0.37;0.37;;;14.90;99.90;;;;;;5066170;28;20226;-83
2021/08/25 01:28:35;;;;;;;0.40;0.40;;;14.90;99.90;;;;;;5073889;28;20184;-82
2021/08/25 01:31:02;;;;;;;0.33;0.33;;;14.90;99.90;;;;;;5058110;28;20198;-82
2021/08/25 01:33:29;;;;;;;0.30;0.30;;;14.90;99.90;;;;;;5077761;28;20184;-82
2021/08/25 01:35:56;;;;;;;0.20;0.20;;;14.90;99.90;;;;;;5064013;28;20192;-82
2021/08/25 01:38:33;;;;;;;1.50;0.63;;;14.90;99.90;;;;;;5073592;28;20649;-82
2021/08/25 01:40:59;;;;;;;0.40;0.40;;;14.80;99.90;;;;;;5072688;28;20676;-83
2021/08/25 01:43:24;;;;;;;0.67;0.40;;;14.90;99.90;;;;;;5072433;28;20182;-83
2021/08/25 01:45:50;;;;;;;0.37;0.30;;;14.80;99.90;;;;;;5068797;28;20641;-83
2021/08/25 01:48:15;;;;;;;0.23;0.17;;;14.80;99.90;;;;;;5072819;28;20188;-82
2021/08/25 01:50:42;;;;;;;1.70;0.33;;;14.80;99.90;;;;;;5063600;28;20223;-82
2021/08/25 01:53:07;;;;;;;0.30;0.30;;;14.80;99.90;;;;;;5068714;28;20205;-83
2021/08/25 01:55:33;;;;;;;0.30;0.30;;;14.80;99.90;;;;;;5057801;28;20217;-82
2021/08/25 01:57:59;;;;;;;0.10;0.10;;;14.70;99.90;;;;;;5071194;28;20179;-80
2021/08/25 02:00:25;;;;;;;0.20;0.20;;;14.70;99.90;;;;;;5067827;28;20232;-82
2021/08/25 02:02:50;;;;;;;0.10;0.10;;;14.70;99.90;;;;;;5067478;28;20666;-83
2021/08/25 02:05:16;;;;;;;0.70;0.37;;;14.70;99.90;;;;;;5073227;28;20200;-83
2021/08/25 02:07:41;;;;;;;0.67;0.67;;;14.70;99.90;;;;;;5072498;28;20199;-82
2021/08/25 02:10:07;;;;;;;0.47;0.33;;;14.70;99.90;;;;;;5056187;28;20218;-82
2021/08/25 02:12:33;;;;;;;0.40;0.40;;;14.70;99.90;;;;;;5068374;28;20194;-82
2021/08/25 02:14:59;;;;;;;0.20;0.20;;;14.70;99.90;;;;;;5071907;28;20206;-82
2021/08/25 02:17:24;;;;;;;3.60;0.60;;;14.70;99.90;;;;;;5070384;28;20249;-82
2021/08/25 02:19:50;;;;;;;0.30;0.30;;;14.70;99.90;;;;;;5070678;28;20218;-85
2021/08/25 02:22:15;;;;;;;0.30;0.30;;;14.70;99.90;;;;;;5065862;28;20211;-85
2021/08/25 02:24:41;;;;;;;0.30;0.30;;;14.70;99.90;;;;;;5060460;28;20216;-82
2021/08/25 02:27:06;;;;;;;0.23;0.17;;;14.70;99.90;;;;;;5072336;28;20186;-82
2021/08/25 02:29:32;;;;;;;1.50;1.07;;;14.70;99.90;;;;;;5066764;28;20235;-82
2021/08/25 02:31:57;;;;;;;0.43;0.40;;;14.70;99.90;;;;;;5066245;28;20215;-81
2021/08/25 02:34:23;;;;;;;1.00;0.80;;;14.60;99.90;;;;;;5086570;28;20650;-82
2021/08/25 02:36:48;;;;;;;0.40;0.40;;;14.60;99.90;;;;;;5072494;28;20181;-82
2021/08/25 02:39:14;;;;;;;0.70;0.70;;;14.60;99.90;;;;;;5054957;28;20177;-82
2021/08/25 02:41:40;;;;;;;0.40;0.40;;;14.60;99.90;;;;;;5066645;28;20204;-81
2021/08/25 02:44:06;;;;;;;0.40;0.40;;;14.50;99.90;;;;;;5064395;28;20277;-82
2021/08/25 02:46:32;;;;;;;0.53;0.40;;;14.50;99.90;;;;;;5073076;28;20182;-81
2021/08/25 02:48:57;;;;;;;0.60;0.60;;;14.50;99.90;;;;;;5070752;28;20223;-82
2021/08/25 02:51:23;;;;;;;0.30;0.30;;;14.50;99.90;;;;;;5065505;28;20209;-82
2021/08/25 02:53:48;;;;;;;0.17;0.17;;;14.50;99.90;;;;;;5068215;28;20212;-82
2021/08/25 02:56:14;;;;;;;0.20;0.20;;;14.50;99.90;;;;;;5073002;28;20220;-82
2021/08/25 02:58:40;;;;;;;0.20;0.20;;;14.50;99.90;;;;;;5054135;28;20187;-82
2021/08/25 03:01:05;;;;;;;0.27;0.27;;;14.50;99.90;;;;;;5067227;28;20261;-83
2021/08/25 03:03:31;;;;;;;0.30;0.30;;;14.60;99.90;;;;;;5053729;28;20189;-83
2021/08/25 03:05:56;;;;;;;0.37;0.30;;;14.60;99.90;;;;;;5062614;28;20228;-83
2021/08/25 03:08:22;;;;;;;0.20;0.20;;;14.60;99.90;;;;;;5067693;28;20241;-82
2021/08/25 03:10:47;;;;;;;0.10;0.10;;;14.60;99.90;;;;;;5065634;28;20209;-83
2021/08/25 03:13:13;;;;;;;0.60;0.60;;;14.60;99.90;;;;;;5064679;28;20188;-83
2021/08/25 03:15:38;;;;;;;0.20;0.20;;;14.50;99.90;;;;;;5069253;28;20204;-83
2021/08/25 03:18:05;;;;;;;0.30;0.30;;;14.50;99.90;;;;;;5071205;28;20223;-82
2021/08/25 03:20:30;;;;;;;0.77;0.67;;;14.50;99.90;;;;;;5063267;28;20231;-81
2021/08/25 03:22:56;;;;;;;0.20;0.20;;;14.50;99.90;;;;;;5057170;28;20269;-83
2021/08/25 03:25:22;;;;;;;0.20;0.20;;;14.60;99.90;;;;;;5068457;28;20199;-82
2021/08/25 03:27:47;;;;;;;0.33;0.20;;;14.60;99.90;;;;;;5063427;28;20186;-83
2021/08/25 03:30:13;;;;;;;0.10;0.10;;;14.60;99.90;;;;;;5064013;28;20223;-82
2021/08/25 03:32:39;;;;;;;0.30;0.30;;;14.60;99.90;;;;;;5068234;28;20566;-82
2021/08/25 03:35:05;;;;;;;0.10;0.10;;;14.50;99.90;;;;;;5067364;28;20198;-83
2021/08/25 03:37:30;;;;;;;0.37;0.30;;;14.50;99.90;;;;;;5063519;28;20574;-83
2021/08/25 03:39:56;;;;;;;0.93;0.50;;;14.50;99.90;;;;;;5064558;28;20191;-83
2021/08/25 03:42:21;;;;;;;0.30;0.30;;;14.50;99.90;;;;;;5066342;28;20224;-83
2021/08/25 03:44:47;;;;;;;0.20;0.20;;;14.40;99.90;;;;;;5065501;28;20241;-86
2021/08/25 03:47:13;;;;;;;0.40;0.37;;;14.40;99.90;;;;;;5069334;28;20198;-84
2021/08/25 03:49:38;;;;;;;0.20;0.20;;;14.40;99.90;;;;;;5065698;28;20678;-83
2021/08/25 03:52:05;;;;;;;0.50;0.50;;;14.40;99.90;;;;;;5057249;28;20232;-81
2021/08/25 03:54:30;;;;;;;0.57;0.50;;;14.40;99.90;;;;;;5066136;28;20219;-84
2021/08/25 03:56:56;;;;;;;0.10;0.10;;;14.40;99.90;;;;;;5062091;28;20243;-83
2021/08/25 03:59:22;;;;;;;0.20;0.20;;;14.60;99.90;;;;;;5070951;28;20251;-83
2021/08/25 04:01:49;;;;;;;0.30;0.27;;;14.50;99.90;;;;;;5067568;28;20223;-83
2021/08/25 04:04:16;;;;;;;0.77;0.27;;;14.50;99.90;;;;;;5068544;28;20202;-85
2021/08/25 04:06:42;;;;;;;0.10;0.10;;;14.50;99.90;;;;;;5061587;28;20655;-84
2021/08/25 04:09:07;;;;;;;0.77;0.23;;;14.50;99.90;;;;;;5063728;28;20218;-85
2021/08/25 04:11:34;;;;;;;0.50;0.50;;;14.40;99.90;;;;;;5066510;28;20340;-85
2021/08/25 04:14:00;;;;;;;0.10;0.10;;;14.30;99.90;;;;;;5059300;28;20735;-85
2021/08/25 04:16:27;;;;;;;0.20;0.20;;;14.30;99.90;;;;;;5065754;28;20194;-82
2021/08/25 04:18:52;;;;;;;0.33;0.20;;;14.20;99.90;;;;;;5068129;28;20340;-83
2021/08/25 04:21:18;;;;;;;0.40;0.30;;;14.20;99.90;;;;;;5068235;28;20717;-81
2021/08/25 04:23:44;;;;;;;0.63;0.30;;;14.20;99.90;;;;;;5057658;28;20569;-81
2021/08/25 04:26:10;;;;;;;0.20;0.20;;;14.10;99.90;;;;;;5064928;28;20232;-82
2021/08/25 04:28:36;;;;;;;0.30;0.30;;;14.20;99.90;;;;;;5050293;28;20189;-83
2021/08/25 04:31:01;;;;;;;0.13;0.13;;;14.10;99.90;;;;;;5064661;28;20213;-83
2021/08/25 04:33:27;;;;;;;0.13;0.13;;;14.10;99.90;;;;;;5064093;28;20277;-83
2021/08/25 04:35:53;;;;;;;0.43;0.33;;;14.10;99.90;;;;;;5065941;28;20224;-82
2021/08/25 04:38:18;;;;;;;0.30;0.30;;;14.10;99.90;;;;;;5064833;28;20189;-83
2021/08/25 04:40:44;;;;;;;0.30;0.30;;;14.10;99.90;;;;;;5070415;28;20587;-82
2021/08/25 04:43:09;;;;;;;0.30;0.30;;;14.10;99.90;;;;;;5067120;28;20185;-83
2021/08/25 04:45:39;;;;;;;0.57;0.53;;;14.00;99.90;;;;;;5071691;28;20236;-82
2021/08/25 04:48:06;;;;;;;0.10;0.10;;;14.00;99.90;;;;;;5069681;28;20268;-85
2021/08/25 04:50:32;;;;;;;0.67;0.67;;;14.00;99.90;;;;;;5071867;28;20266;-86
2021/08/25 04:52:58;;;;;;;0.83;0.60;;;14.00;99.90;;;;;;5067260;28;20190;-86
2021/08/25 04:55:23;;;;;;;0.80;0.50;;;13.90;99.90;;;;;;5065007;28;20202;-85
2021/08/25 04:57:49;;;;;;;1.03;0.50;;;13.80;99.90;;;;;;5067049;28;20269;-82
2021/08/25 05:00:15;;;;;;;0.63;0.40;;;13.80;99.90;;;;;;5071035;28;20731;-81
2021/08/25 05:02:41;;;;;;;0.23;0.23;;;13.80;99.90;;;;;;5071526;28;20235;-82
2021/08/25 05:05:07;;;;;;;0.27;0.27;;;13.90;99.90;;;;;;5072011;28;20185;-82
2021/08/25 05:07:33;;;;;;;0.50;0.50;;;14.00;99.90;;;;;;5075241;28;20680;-82
2021/08/25 05:09:58;;;;;;;0.20;0.20;;;14.10;99.90;;;;;;5059278;28;20220;-82
2021/08/25 05:12:24;;;;;;;0.73;0.53;;;14.20;99.90;;;;;;5055565;28;20292;-82
2021/08/25 05:14:49;;;;;;;0.10;0.10;;;14.20;99.90;;;;;;5059824;28;20203;-81
2021/08/25 05:17:15;;;;;;;0.57;0.40;;;14.30;99.90;;;;;;5067822;28;20205;-81
2021/08/25 05:19:40;;;;;;;0.10;0.10;;;14.20;99.90;;;;;;5067568;28;20195;-82
2021/08/25 05:22:06;;;;;;;0.20;0.20;;;14.30;99.90;;;;;;5073107;28;20218;-82
2021/08/25 05:24:33;;;;;;;0.30;0.23;;;14.30;99.90;;;;;;5068783;28;20207;-82
2021/08/25 05:26:59;;;;;;;0.43;0.43;;;14.40;99.90;;;;;;5062143;28;20186;-82
2021/08/25 05:29:25;;;;;;;0.63;0.40;;;14.50;99.90;;;;;;5072902;28;20293;-82
2021/08/25 05:31:51;;;;;;;0.10;0.10;;;14.60;99.90;;;;;;5062811;28;20259;-82
2021/08/25 05:34:16;;;;;;;0.23;0.23;;;14.70;99.90;;;;;;5072268;28;20182;-82
2021/08/25 05:36:42;;;;;;;0.20;0.20;;;14.70;99.90;;;;;;5071565;28;20186;-82
2021/08/25 05:39:07;;;;;;;0.40;0.40;;;14.70;99.90;;;;;;5073148;28;20714;-82
2021/08/25 05:41:33;;;;;;;0.17;0.17;;;14.80;99.90;;;;;;5066805;28;20400;-81
2021/08/25 05:44:03;;;;;;;0.63;0.63;;;14.80;99.90;;;;;;5067306;28;20664;-82
2021/08/25 05:46:30;;;;;;;0.70;0.70;;;14.80;99.90;;;;;;5068034;28;20543;-82
2021/08/25 05:48:56;;;;;;;0.53;0.53;;;14.80;99.90;;;;;;5087214;28;20651;-82
2021/08/25 05:51:21;;;;;;;0.53;0.53;;;14.90;99.90;;;;;;5070246;28;20212;-80
2021/08/25 05:53:48;;;;;;;0.80;0.33;;;15.00;99.90;;;;;;5064300;28;20191;-82
2021/08/25 05:56:13;;;;;;;0.20;0.20;;;15.10;99.90;;;;;;5072367;28;20176;-82
2021/08/25 05:58:42;;;;;;;0.47;0.47;;;15.20;99.90;;;;;;5067435;28;20218;-82
2021/08/25 06:01:07;;;;;;;1.40;0.40;;;15.20;99.90;;;;;;5060652;28;20297;-81
2021/08/25 06:03:33;;;;;;;0.30;0.30;;;15.30;99.90;;;;;;5072790;28;20216;-83
2021/08/25 06:05:58;;;;;;;0.57;0.30;;;15.40;99.90;;;;;;5061608;28;20192;-82
2021/08/25 06:08:24;;;;;;;0.40;0.40;;;15.50;99.90;;;;;;5063577;28;20233;-82
2021/08/25 06:10:50;;;;;;;0.43;0.30;;;15.80;99.90;;;;;;5071047;28;20262;-82
2021/08/25 06:13:15;;;;;;;0.50;0.50;;;15.90;99.90;;;;;;5059097;28;20194;-82
2021/08/25 06:15:41;;;;;;;0.20;0.20;;;16.00;99.90;;;;;;5072684;28;20210;-82
2021/08/25 06:18:06;;;;;;;0.53;0.50;;;16.20;99.90;;;;;;5067501;28;20267;-81
2021/08/25 06:20:32;;;;;;;0.20;0.20;;;16.30;99.90;;;;;;5073557;28;20339;-85
2021/08/25 06:22:57;;;;;;;0.43;0.43;;;16.30;99.90;;;;;;5058590;28;20538;-85
2021/08/25 06:25:23;;;;;;;0.37;0.37;;;16.30;99.90;;;;;;5064986;28;20767;-82
2021/08/25 06:27:49;;;;;;;0.53;0.50;;;16.40;99.90;;;;;;5062262;28;20282;-82
2021/08/25 06:30:14;;;;;;;0.90;0.60;;;16.40;99.90;;;;;;5055621;28;20762;-83
2021/08/25 06:32:41;;;;;;;0.20;0.20;;;16.50;99.90;;;;;;5063854;28;20687;-81
2021/08/25 06:35:07;;;;;;;0.20;0.20;;;16.70;99.90;;;;;;5066852;28;20181;-82
2021/08/25 06:37:32;;;;;;;0.43;0.23;;;17.00;99.90;;;;;;5067245;28;20185;-83
2021/08/25 06:39:58;;;;;;;0.60;0.60;;;17.00;99.90;;;;;;5067828;28;20185;-82
2021/08/25 06:42:24;;;;;;;0.50;0.50;;;17.20;99.90;;;;;;5090666;28;20250;-82
2021/08/25 06:44:49;;;;;;;0.40;0.40;;;17.50;99.90;;;;;;5063645;28;20185;-82
2021/08/25 06:47:15;;;;;;;0.40;0.40;;;17.50;99.90;;;;;;5052928;28;20195;-83
2021/08/25 06:49:40;;;;;;;0.17;0.17;;;17.70;99.90;;;;;;5055105;28;20306;-82
2021/08/25 06:52:06;;;;;;;0.33;0.30;;;17.50;99.90;;;;;;5067761;28;20216;-82
2021/08/25 06:54:31;;;;;;;0.20;0.20;;;17.60;99.90;;;;;;5068391;28;20189;-82
2021/08/25 06:56:57;;;;;;;0.23;0.23;;;17.70;99.90;;;;;;5069907;28;20205;-83
2021/08/25 06:59:22;;;;;;;0.43;0.43;;;17.80;99.90;;;;;;5081574;28;20254;-82
2021/08/25 07:01:48;;;;;;;0.20;0.20;;;18.10;99.90;;;;;;5062613;28;21394;-86
2021/08/25 07:04:16;;;;;;;0.30;0.20;;;18.20;99.90;;;;;;5062900;28;20251;-85
2021/08/25 07:06:41;;;;;;;0.10;0.10;;;18.30;99.90;;;;;;5067113;28;20268;-83
2021/08/25 07:09:07;;;;;;;0.60;0.57;;;18.30;99.90;;;;;;5070337;28;20185;-83
2021/08/25 07:11:34;;;;;;;0.27;0.27;;;18.20;99.90;;;;;;5062342;28;20197;-84
2021/08/25 07:13:59;;;;;;;0.20;0.20;;;18.40;99.90;;;;;;5066141;28;20250;-82
2021/08/25 07:16:25;;;;;;;0.10;0.10;;;18.50;99.90;;;;;;5068209;28;20653;-84
2021/08/25 07:18:51;;;;;;;0.40;0.40;;;18.50;99.90;;;;;;5061071;28;20180;-83
2021/08/25 07:21:16;;;;;;;0.30;0.30;;;18.70;99.90;;;;;;5071475;28;20224;-82
2021/08/25 07:23:42;;;;;;;0.40;0.37;;;18.90;99.90;;;;;;5066439;28;20560;-81
2021/08/25 07:26:07;;;;;;;1.57;0.60;;;19.00;99.90;;;;;;5066040;28;20354;-83
2021/08/25 07:28:33;;;;;;;0.30;0.30;;;18.90;99.90;;;;;;5070031;28;20192;-83
2021/08/25 07:30:59;;;;;;;0.63;0.63;;;19.10;99.90;;;;;;5059999;28;20221;-83
2021/08/25 07:33:24;;;;;;;1.17;0.60;;;19.30;99.90;;;;;;5066520;28;20189;-82
2021/08/25 07:35:50;;;;;;;0.67;0.50;;;19.20;99.90;;;;;;5055217;28;20604;-82
2021/08/25 07:38:16;;;;;;;0.83;0.67;;;19.30;99.90;;;;;;5059671;28;20239;-82
2021/08/25 07:40:43;;;;;;;0.60;0.60;;;19.40;99.90;;;;;;5059438;28;20209;-84
2021/08/25 07:43:09;;;;;;;1.07;0.60;;;19.60;99.90;;;;;;5069614;28;20258;-83
2021/08/25 07:45:36;;;;;;;0.23;0.23;;;19.40;99.90;;;;;;5066591;28;20220;-83
2021/08/25 07:48:01;;;;;;;1.83;0.70;;;19.50;99.90;;;;;;5067087;28;20185;-83
2021/08/25 07:50:27;;;;;;;0.70;0.70;;;19.60;99.90;;;;;;5070290;28;20224;-83
2021/08/25 07:52:53;;;;;;;0.47;0.33;;;19.70;99.90;;;;;;5066632;28;20181;-82
2021/08/25 07:55:18;;;;;;;1.30;0.80;;;19.60;99.90;;;;;;5071325;28;20188;-83
2021/08/25 07:57:45;;;;;;;0.40;0.40;;;19.50;99.90;;;;;;5069753;28;20228;-84
2021/08/25 08:00:11;;;;;;;0.57;0.43;;;19.90;99.90;;;;;;5063219;28;20188;-83
2021/08/25 08:02:36;;;;;;;1.07;0.70;;;19.90;99.90;;;;;;5070422;28;20796;-83
2021/08/25 08:05:06;;;;;;;1.97;0.47;;;20.40;99.90;;;;;;5072609;28;20188;-83
2021/08/25 08:07:31;;;;;;;0.13;0.13;;;20.80;99.90;;;;;;5068634;28;20197;-82
2021/08/25 08:09:57;;;;;;;0.80;0.70;;;20.90;99.90;;;;;;5061975;28;20304;-82
2021/08/25 08:12:22;;;;;;;0.53;0.53;;;20.30;99.90;;;;;;5061030;28;20201;-82
2021/08/25 08:14:48;;;;;;;0.70;0.50;;;20.30;99.90;;;;;;5053786;28;20201;-82
2021/08/25 08:17:16;;;;;;;0.77;0.30;;;20.80;99.90;;;;;;5074884;28;20227;-82
2021/08/25 08:19:42;;;;;;;0.77;0.77;;;21.00;99.90;;;;;;5070193;28;20181;-81
2021/08/25 08:22:07;;;;;;;0.43;0.43;;;21.20;99.90;;;;;;5068465;28;20261;-80
2021/08/25 08:24:33;;;;;;;1.53;0.57;;;21.30;99.90;;;;;;5055693;28;20216;-82
2021/08/25 08:26:59;;;;;;;0.83;0.77;;;20.70;99.90;;;;;;5065654;28;20185;-82
2021/08/25 08:29:25;;;;;;;1.00;0.60;;;21.00;99.90;;;;;;5064310;28;20208;-82
2021/08/25 08:31:51;;;;;;;0.63;0.63;;;21.40;99.90;;;;;;5067415;28;20585;-82
2021/08/25 08:34:16;;;;;;;0.40;0.40;;;21.20;99.90;;;;;;5058198;28;20185;-82
2021/08/25 08:36:42;;;;;;;0.40;0.40;;;21.00;99.90;;;;;;5071088;28;20547;-82
2021/08/25 08:39:08;;;;;;;0.60;0.60;;;21.20;99.90;;;;;;5062297;28;20192;-82
2021/08/25 08:41:33;;;;;;;0.70;0.70;;;21.50;99.90;;;;;;5060213;28;20201;-82
2021/08/25 08:43:59;;;;;;;1.00;0.90;;;21.60;99.90;;;;;;5063946;28;20188;-82
2021/08/25 08:46:25;;;;;;;0.60;0.60;;;21.30;99.90;;;;;;5066241;28;20213;-82
2021/08/25 08:48:52;;;;;;;0.30;0.30;;;21.30;99.90;;;;;;5051067;28;20213;-82
2021/08/25 08:51:23;;;;;;;0.30;0.30;;;21.70;99.90;;;;;;5060522;28;20204;-82
2021/08/25 08:53:51;;;;;;;0.30;0.30;;;21.80;99.90;;;;;;5057082;28;20183;-82
2021/08/25 08:56:18;;;;;;;1.60;0.53;;;21.90;99.90;;;;;;5063247;28;20260;-82
2021/08/25 08:58:44;;;;;;;0.70;0.70;;;21.70;99.90;;;;;;5060502;28;20173;-82
2021/08/25 09:01:10;;;;;;;0.20;0.20;;;22.00;99.90;;;;;;5056218;28;20233;-82
2021/08/25 09:03:39;;;;;;;1.33;0.43;;;22.10;99.90;;;;;;5062729;28;20216;-83
2021/08/25 09:06:07;;;;;;;1.10;1.10;;;21.60;99.90;;;;;;5067033;28;20223;-83
2021/08/25 09:08:35;;;;;;;0.20;0.20;;;21.80;99.90;;;;;;5058352;28;20182;-83
2021/08/25 09:11:14;;;;;;;0.57;0.57;;;22.30;99.90;;;;;;5066746;28;20209;-82
2021/08/25 09:13:49;;;;;;;0.67;0.67;;;22.60;99.90;;;;;;5065424;28;20177;-82
2021/08/25 09:16:32;;;;;;;1.37;0.83;;;22.70;99.90;;;;;;5063223;28;20551;-82
2021/08/25 09:19:08;;;;;;;2.97;1.53;;;22.60;99.90;;;;;;5056903;28;20199;-86
2021/08/25 09:21:39;;;;;;;0.77;0.77;;;22.60;99.90;;;;;;5054197;28;20412;-82
2021/08/25 09:24:06;;;;;;;0.60;0.60;;;22.30;99.90;;;;;;5057091;28;20673;-83
2021/08/25 09:26:33;;;;;;;0.23;0.23;;;22.40;99.90;;;;;;5058908;28;20562;-83
2021/08/25 09:29:16;;;;;;;2.10;1.03;;;22.00;99.90;;;;;;5066199;28;20173;-83
2021/08/25 09:31:43;;;;;;;0.60;0.60;;;21.90;99.90;;;;;;5058996;28;20542;-83
2021/08/25 09:34:40;;;;;;;0.30;0.30;;;21.70;99.90;;;;;;5056518;28;20181;-82
2021/08/25 09:37:17;;;;;;;0.40;0.40;;;21.90;99.90;;;;;;5058708;28;20263;-85
2021/08/25 09:39:55;;;;;;;2.63;0.60;;;22.10;99.90;;;;;;5063358;28;20185;-83
2021/08/25 09:42:21;;;;;;;0.57;0.57;;;22.80;99.90;;;;;;5063032;28;20181;-82
2021/08/25 09:45:11;;;;;;;0.93;0.80;;;22.60;99.90;;;;;;5074149;28;20665;-84
2021/08/25 09:47:47;;;;;;;1.37;1.27;;;22.50;99.90;;;;;;5072551;28;20268;-85
2021/08/25 09:50:17;;;;;;;0.47;0.47;;;22.30;99.90;;;;;;5071924;28;20211;-85
2021/08/25 09:52:44;;;;;;;0.30;0.30;;;22.10;99.90;;;;;;5064308;28;20181;-85
2021/08/25 09:55:12;;;;;;;0.97;0.90;;;22.40;99.90;;;;;;5073942;28;20177;-84
2021/08/25 09:57:42;;;;;;;0.23;0.23;;;22.80;99.90;;;;;;5073794;28;20181;-85
2021/08/25 10:00:09;;;;;;;0.60;0.60;;;22.80;99.90;;;;;;5072863;28;20185;-84
2021/08/25 10:02:35;;;;;;;0.53;0.53;;;23.10;99.90;;;;;;5073131;28;20181;-85
2021/08/25 10:05:01;;;;;;;0.53;0.50;;;23.20;99.90;;;;;;5071750;28;20254;-85
2021/08/25 10:07:27;;;;;;;2.27;0.67;;;23.00;99.90;;;;;;5070171;28;20256;-84
2021/08/25 10:09:54;;;;;;;0.40;0.40;;;23.70;99.90;;;;;;5072920;28;20204;-85
2021/08/25 10:12:20;;;;;;;0.27;0.27;;;23.70;99.90;;;;;;5072575;28;20700;-83
2021/08/25 10:14:46;;;;;;;0.43;0.37;;;23.70;99.90;;;;;;5067836;28;20173;-85
2021/08/25 10:17:38;;;;;;;0.43;0.43;;;23.40;99.90;;;;;;5073757;28;20176;-85
2021/08/25 10:20:23;;;;;;;0.97;0.83;;;23.30;99.90;;;;;;5060800;28;20200;-84
2021/08/25 10:22:50;;;;;;;0.27;0.27;;;23.40;99.90;;;;;;5073622;28;20177;-84
2021/08/25 10:25:16;;;;;;;0.93;0.67;;;23.70;99.90;;;;;;5063465;28;20201;-85
2021/08/25 10:28:02;;;;;;;0.50;0.50;;;23.80;99.90;;;;;;5071044;28;20284;-85
2021/08/25 10:30:28;;;;;;;0.47;0.47;;;23.50;99.90;;;;;;5073350;28;20208;-85
2021/08/25 10:32:57;;;;;;;0.50;0.50;;;24.40;99.90;;;;;;5065194;28;20276;-85
2021/08/25 10:35:31;;;;;;;0.60;0.60;;;24.50;99.90;;;;;;5068295;28;20173;-84
2021/08/25 10:38:19;;;;;;;0.47;0.47;;;24.30;99.90;;;;;;5072571;28;20176;-85
2021/08/25 10:40:45;;;;;;;0.37;0.37;;;23.70;99.90;;;;;;5070241;28;20209;-83
2021/08/25 10:43:41;;;;;;;0.43;0.43;;;24.00;99.90;;;;;;5071281;28;20610;-84
2021/08/25 10:46:09;;;;;;;0.73;0.73;;;24.10;99.90;;;;;;5061474;28;20193;-84
2021/08/25 10:48:39;;;;;;;0.57;0.57;;;23.60;99.90;;;;;;5072856;28;20561;-85
2021/08/25 10:51:04;;;;;;;2.73;0.90;;;23.40;99.90;;;;;;5072719;28;20286;-85
2021/08/25 10:53:33;;;;;;;0.40;0.40;;;23.50;99.90;;;;;;5073097;28;20677;-85
2021/08/25 10:56:18;;;;;;;1.77;0.70;;;23.30;99.90;;;;;;5072860;28;20180;-85
2021/08/25 10:58:55;;;;;;;0.77;0.77;;;22.30;99.90;;;;;;5065697;28;20657;-85
2021/08/25 11:01:28;;;;;;;0.60;0.60;;;22.30;99.90;;;;;;5071532;28;20250;-85
2021/08/25 11:03:54;;;;;;;0.37;0.37;;;22.10;99.90;;;;;;5062972;28;20181;-85
2021/08/25 11:06:37;;;;;;;0.33;0.33;;;22.30;99.90;;;;;;5072290;28;20208;-84
2021/08/25 11:09:12;;;;;;;0.63;0.40;;;22.10;99.90;;;;;;5071202;28;20181;-86
2021/08/25 11:11:38;;;;;;;0.40;0.40;;;22.40;99.90;;;;;;5052217;28;20209;-85
2021/08/25 11:14:04;;;;;;;1.30;0.77;;;22.00;99.90;;;;;;5064967;28;20192;-82
2021/08/25 11:16:30;;;;;;;0.33;0.33;;;22.00;99.90;;;;;;5066957;28;20276;-83
2021/08/25 11:18:56;;;;;;;0.57;0.43;;;22.10;99.90;;;;;;5067881;28;20869;-82
2021/08/25 11:21:21;;;;;;;0.50;0.50;;;21.90;99.90;;;;;;5066819;28;20201;-83
2021/08/25 11:23:56;;;;;;;0.80;0.80;;;21.80;99.90;;;;;;5061706;28;20231;-83
2021/08/25 11:26:22;;;;;;;0.37;0.33;;;22.10;99.90;;;;;;5059814;28;20199;-82
2021/08/25 11:28:48;;;;;;;0.50;0.50;;;22.50;99.90;;;;;;5069619;28;20193;-83
2021/08/25 11:31:24;;;;;;;0.87;0.40;;;22.60;99.90;;;;;;5062457;28;20223;-82
2021/08/25 11:33:51;;;;;;;1.50;1.40;;;23.30;99.90;;;;;;5052704;28;20280;-84
2021/08/25 11:36:17;;;;;;;1.40;0.60;;;24.00;99.90;;;;;;5067223;28;20645;-83
2021/08/25 11:38:42;;;;;;;0.83;0.73;;;24.60;99.90;;;;;;5066241;28;20250;-83
2021/08/25 11:41:08;;;;;;;0.93;0.80;;;24.50;99.90;;;;;;5064386;28;20262;-83
2021/08/25 11:43:34;;;;;;;0.50;0.50;;;23.50;99.90;;;;;;5063988;28;20620;-83
2021/08/25 11:46:01;;;;;;;0.30;0.30;;;24.10;99.90;;;;;;5060636;28;20665;-83
2021/08/25 11:48:30;;;;;;;0.57;0.57;;;23.20;99.90;;;;;;5065665;28;20720;-83
2021/08/25 11:50:58;;;;;;;1.00;0.80;;;22.90;99.90;;;;;;5063211;28;20755;-83
2021/08/25 11:53:26;;;;;;;0.57;0.37;;;22.30;99.90;;;;;;5065176;28;20205;-83
2021/08/25 11:55:54;;;;;;;2.90;0.47;;;22.20;99.90;;;;;;5060872;28;20212;-83
2021/08/25 11:58:34;;;;;;;1.27;1.17;;;22.20;99.90;;;;;;5063793;28;20728;-83
2021/08/25 12:01:00;;;;;;;0.50;0.50;;;22.00;99.90;;;;;;5060915;28;20205;-83
2021/08/25 12:03:43;;;;;;;0.40;0.40;;;22.30;99.90;;;;;;5052750;28;20250;-83
2021/08/25 12:06:11;;;;;;;0.43;0.43;;;23.10;99.90;;;;;;5065204;28;20189;-83
2021/08/25 12:08:48;;;;;;;0.47;0.47;;;23.70;99.90;;;;;;5060925;28;20212;-83
2021/08/25 12:11:15;;;;;;;0.50;0.50;;;24.40;99.90;;;;;;5057658;28;20242;-83
2021/08/25 12:13:57;;;;;;;0.50;0.50;;;24.00;99.90;;;;;;5069071;28;20185;-82
2021/08/25 12:16:30;;;;;;;2.47;0.67;;;24.10;99.90;;;;;;5100092;28;20181;-83
2021/08/25 12:18:57;;;;;;;0.30;0.30;;;24.50;99.90;;;;;;5064065;28;20600;-82
2021/08/25 12:21:41;;;;;;;0.40;0.40;;;24.80;99.90;;;;;;5062125;28;20342;-83
2021/08/25 12:24:10;;;;;;;0.20;0.20;;;25.20;99.90;;;;;;5062739;28;20182;-83
2021/08/25 12:26:39;;;;;;;0.27;0.27;;;25.10;99.90;;;;;;5069848;28;20279;-83
2021/08/25 12:29:06;;;;;;;0.30;0.30;;;23.90;99.90;;;;;;5067705;28;20238;-83
2021/08/25 12:31:33;;;;;;;3.20;0.53;;;23.50;99.90;;;;;;5060252;28;20289;-83
2021/08/25 12:34:11;;;;;;;0.90;0.80;;;23.70;99.90;;;;;;5066769;28;20212;-83
2021/08/25 12:36:57;;;;;;;0.60;0.53;;;23.50;99.90;;;;;;5068345;28;20181;-83
2021/08/25 12:39:28;;;;;;;0.37;0.30;;;22.80;99.90;;;;;;5064231;28;20209;-83
2021/08/25 12:41:55;;;;;;;0.80;0.63;;;22.90;99.90;;;;;;5060435;28;20209;-83
2021/08/25 12:44:22;;;;;;;0.43;0.40;;;23.20;99.90;;;;;;5066293;28;20188;-83
2021/08/25 12:46:54;;;;;;;0.70;0.70;;;23.40;99.90;;;;;;5071282;28;20188;-83
2021/08/25 12:49:22;;;;;;;4.03;0.90;;;23.30;99.90;;;;;;5051334;28;20306;-83
2021/08/25 12:51:48;;;;;;;0.43;0.33;;;23.70;99.90;;;;;;5070408;28;20205;-83